createdAt,value
2023-05-10T00:05:51.928Z,23.2
2023-05-10T00:12:11.982Z,23.2
2023-05-10T00:18:34.974Z,1.1
2023-05-10T00:24:54.946Z,1.1
2023-05-10T00:31:17.900Z,1.4
2023-05-10T00:37:38.019Z,1.4
2023-05-10T00:44:00.886Z,1
2023-05-10T00:50:20.952Z,1
2023-05-10T00:56:43.970Z,1.1
2023-05-10T01:03:04.003Z,1.1
2023-05-10T01:09:26.934Z,2.4
2023-05-10T01:15:46.950Z,2.4
2023-05-10T01:22:09.930Z,1.1
2023-05-10T01:28:29.951Z,1.1
2023-05-10T01:34:52.990Z,1.9
2023-05-10T01:41:12.953Z,1.9
2023-05-10T01:47:35.957Z,1.5
2023-05-10T01:53:55.971Z,1.5
2023-05-10T02:00:18.989Z,0.3
2023-05-10T02:06:38.968Z,0.3
2023-05-10T02:13:02.061Z,1
2023-05-10T02:19:21.973Z,1
2023-05-10T02:25:45.138Z,2.2
2023-05-10T02:32:05.199Z,2.2
2023-05-10T02:38:27.931Z,0.8
2023-05-10T02:44:47.951Z,0.8
2023-05-10T02:51:11.026Z,0.1
2023-05-10T02:57:31.004Z,0.1
2023-05-10T03:03:53.907Z,1.5
2023-05-10T03:10:14.056Z,1.5
2023-05-10T03:16:36.899Z,8.7
2023-05-10T03:22:56.990Z,8.7
2023-05-10T03:29:19.958Z,2.4
2023-05-10T03:45:27.830Z,5.1
2023-05-10T03:51:47.890Z,5.1
2023-05-10T03:58:10.978Z,11.1
2023-05-10T04:04:30.934Z,11.1
2023-05-10T04:10:53.927Z,3.9
2023-05-10T04:17:14.000Z,3.9
2023-05-10T04:23:37.001Z,5.5
2023-05-10T04:29:56.995Z,5.5
2023-05-10T04:36:19.907Z,12.7
2023-05-10T04:42:39.935Z,12.7
2023-05-10T04:49:02.944Z,20.1
2023-05-10T04:55:22.902Z,20.1
2023-05-10T05:01:45.997Z,26.8
2023-05-10T05:08:05.918Z,26.8
2023-05-10T05:14:28.900Z,9.7
2023-05-10T05:20:48.991Z,9.7
2023-05-10T05:27:11.907Z,9.1
2023-05-10T05:33:31.969Z,9.1
2023-05-10T05:39:54.924Z,9.7
2023-05-10T05:46:14.923Z,9.7
2023-05-10T05:52:37.974Z,11.9
2023-05-10T05:58:57.964Z,11.9
2023-05-10T06:05:20.968Z,8.6
2023-05-10T06:11:40.898Z,8.6
2023-05-10T06:18:04.021Z,19.8
2023-05-10T06:24:23.907Z,19.8
2023-05-10T06:30:46.925Z,20.1
2023-05-10T06:37:07.071Z,20.1
2023-05-10T06:43:29.919Z,46.7
2023-05-10T06:49:49.920Z,46.7
2023-05-10T06:56:12.963Z,12.9
2023-05-10T07:02:32.941Z,12.9
2023-05-10T07:08:55.924Z,7.9
2023-05-10T07:15:16.084Z,7.9
2023-05-10T07:21:38.914Z,5.7
2023-05-10T07:27:58.928Z,5.7
2023-05-10T07:34:21.917Z,3
2023-05-10T07:40:42.019Z,3
2023-05-10T07:47:04.896Z,6
2023-05-10T07:53:24.943Z,6
2023-05-10T07:59:47.971Z,4.5
2023-05-10T08:06:07.888Z,4.5
2023-05-10T08:12:30.994Z,4.2
2023-05-10T08:18:51.269Z,4.2
2023-05-10T08:25:14.213Z,10.5
2023-05-10T08:31:34.467Z,10.5
2023-05-10T08:37:56.898Z,3.3
2023-05-10T08:44:17.021Z,3.3
2023-05-10T08:50:40.001Z,4.2
2023-05-10T08:56:59.968Z,4.2
2023-05-10T09:13:09.739Z,3.6
2023-05-10T09:19:29.958Z,3.6
2023-05-10T09:25:52.891Z,3.4
2023-05-10T09:32:13.756Z,3.4
2023-05-10T09:38:35.955Z,6
2023-05-10T09:44:56.185Z,6
2023-05-10T09:51:18.948Z,2
2023-05-10T09:57:39.045Z,2
2023-05-10T10:04:01.937Z,1
2023-05-10T10:10:22.035Z,1
2023-05-10T10:16:55.618Z,0.9
2023-05-10T10:23:05.124Z,0.9
2023-05-10T10:29:28.406Z,1.6
2023-05-10T10:35:47.956Z,1.6
2023-05-10T10:42:10.993Z,4.6
2023-05-10T10:48:31.055Z,4.6
2023-05-10T10:54:54.069Z,6.3
2023-05-10T11:01:15.408Z,6.3
2023-05-10T11:07:38.192Z,7.4
2023-05-10T11:13:57.899Z,7.4
2023-05-10T11:20:20.970Z,3.9
2023-05-10T11:26:40.953Z,3.9
2023-05-10T11:33:04.019Z,8.2
2023-05-10T11:39:23.942Z,8.2
2023-05-10T11:45:46.970Z,1.7
2023-05-10T11:52:06.953Z,1.7
2023-05-10T11:58:29.978Z,3.3
2023-05-10T12:04:50.013Z,3.3
2023-05-10T12:11:12.908Z,5.4
2023-05-10T12:17:32.965Z,5.4
2023-05-10T12:23:55.997Z,1.4
2023-05-10T12:30:16.112Z,1.4
2023-05-10T12:36:38.983Z,3.4
2023-05-10T12:42:59.104Z,3.4
2023-05-10T12:49:22.356Z,1.3
2023-05-10T12:55:41.925Z,1.3
2023-05-10T13:02:04.956Z,2.6
2023-05-10T13:08:24.992Z,2.6
2023-05-10T13:14:47.951Z,1.3
2023-05-10T13:21:08.008Z,1.3
2023-05-10T13:27:31.105Z,1.7
2023-05-10T13:33:50.960Z,1.7
2023-05-10T13:40:13.952Z,0.7
2023-05-10T13:46:33.984Z,0.7
2023-05-10T13:52:57.020Z,3.8
2023-05-10T13:59:16.937Z,3.8
2023-05-10T14:05:39.984Z,1.5
2023-05-10T14:11:59.911Z,1.5
2023-05-10T14:34:47.889Z,4.8
2023-05-10T14:41:08.292Z,4.8
2023-05-10T14:47:30.928Z,15.5
2023-05-10T14:53:50.969Z,15.5
2023-05-10T15:00:13.936Z,1.8
2023-05-10T15:06:34.013Z,1.8
2023-05-10T15:12:56.927Z,1.3
2023-05-10T15:19:16.992Z,1.3
2023-05-10T15:25:39.979Z,1.7
2023-05-10T15:31:59.969Z,1.7
2023-05-10T15:38:22.903Z,0.6
2023-05-10T15:44:42.933Z,0.6
2023-05-10T15:51:05.923Z,2.2
2023-05-10T15:57:25.968Z,2.2
2023-05-10T16:03:48.899Z,1
2023-05-10T16:10:08.981Z,1
2023-05-10T16:16:31.962Z,13.5
2023-05-10T16:22:51.912Z,13.5
2023-05-10T16:29:14.992Z,0.7
2023-05-10T16:35:34.922Z,0.7
2023-05-10T16:41:57.921Z,3.1
2023-05-10T16:48:17.943Z,3.1
2023-05-10T16:54:40.941Z,0.5
2023-05-10T17:01:00.960Z,0.5
2023-05-10T17:07:26.111Z,4
2023-05-10T17:13:43.944Z,4
2023-05-10T17:20:07.058Z,2.9
2023-05-10T17:26:27.057Z,2.9
2023-05-10T17:32:50.079Z,1
2023-05-10T17:39:09.957Z,1
2023-05-10T17:45:33.060Z,6
2023-05-10T17:51:52.970Z,6
2023-05-10T17:58:15.913Z,2.9
2023-05-10T18:04:36.118Z,2.9
2023-05-10T18:10:58.993Z,1.2
2023-05-10T18:17:18.944Z,1.2
2023-05-10T18:23:42.001Z,0.8
2023-05-10T18:30:01.969Z,0.8
2023-05-10T18:36:24.966Z,0.5
2023-05-10T18:42:45.004Z,0.5
2023-05-10T18:49:07.908Z,1
2023-05-10T18:55:28.074Z,1
2023-05-10T19:01:51.446Z,1.5
2023-05-10T19:08:10.975Z,1.5
2023-05-10T19:14:34.057Z,1.5
2023-05-10T19:20:57.290Z,1.5
2023-05-10T19:27:21.011Z,1.3
2023-05-10T19:33:40.912Z,1.3
2023-05-10T19:40:03.932Z,2.6
2023-05-10T20:03:45.483Z,9.5
2023-05-10T20:10:04.881Z,9.5
2023-05-10T20:16:28.031Z,9.5
2023-05-10T20:22:47.920Z,9.5
2023-05-10T20:29:10.907Z,4.6
2023-05-10T20:35:30.970Z,4.6
2023-05-10T20:41:53.919Z,3.6
2023-05-10T20:48:13.929Z,3.6
2023-05-10T20:54:36.936Z,4
2023-05-10T21:00:56.924Z,4
2023-05-10T21:07:19.984Z,2.8
2023-05-10T21:13:39.924Z,2.8
2023-05-10T21:20:02.980Z,3.2
2023-05-10T21:26:22.963Z,3.2
2023-05-10T21:32:45.935Z,2.4
2023-05-10T21:39:06.017Z,2.4
2023-05-10T21:45:28.929Z,1.5
2023-05-10T21:51:48.899Z,1.5
2023-05-10T21:58:12.018Z,2.5
2023-05-10T22:22:26.954Z,7.5
2023-05-10T22:28:46.870Z,7.5
2023-05-10T22:35:09.941Z,7.5
2023-05-10T22:41:29.933Z,7.5
2023-05-10T22:47:53.049Z,6.2
2023-05-10T22:54:12.918Z,6.2
2023-05-10T23:00:35.984Z,3.2
2023-05-10T23:06:55.933Z,3.2
2023-05-10T23:13:19.044Z,0.7
2023-05-10T23:19:38.958Z,0.7
2023-05-10T23:26:01.969Z,1.2
2023-05-10T23:32:22.064Z,1.2
2023-05-10T23:38:44.967Z,1
2023-05-10T23:45:04.992Z,1
2023-05-10T23:51:27.970Z,7.2
2023-05-10T23:57:47.959Z,7.2
